»·PEaware :: DFGCW X43-2V6

DFGCW :: X43-2V6

FLIGHT INFORMATION

Flight Status: Arrived
Operator: Unknown
More flights by this operator :: More flights under this callsign
Pilot: Klaus A. (15485)
Aircraft: PILATUS PC-12 EAGLE
(PC12)
More flights by this aircraft type
Origin: X43 Sunray
United States
Destination: 2V6 Yuma Mun
United States
More flights between these airports :: More routes between these airports
Route: +DCT
File this flight plan on PilotEdge
Remarks: / G Custom weather
Altitude:
(Current/Filed)
17,000ft
Speed:
(Current/Filed)
270kts
Departed: 31-Oct-18 08:51 AM
Arrived: 31-Oct-18 09:54 AM
Distance/Time
Traveled:
248nm/1:03
Distance/Time
To Go:
Arrived

Flight Plot

Page will automatically refresh every two minutes.

Flight plan parsing failed; only flown route is shown


Map Options




Map Legend


Flown Route
Filed Route
Departure Airport
Arrival Airport
Navaid (VOR, NDB)
Fix

Horizontal Profiles

Position Reports

Time Latitude Longitude Heading Altitude Ground
Speed
31-Oct-18 08:50 36.024484 -101.828393 271 3512ft 0kts
31-Oct-18 08:51 36.024484 -101.828393 271 3512ft 0kts
31-Oct-18 08:52 36.024819 -101.828883 356 3511ft 0kts
31-Oct-18 08:53 36.049391 -101.830572 337 4536ft 131kts
31-Oct-18 08:54 36.088786 -101.840969 346 6669ft 154kts
31-Oct-18 08:55 36.131477 -101.849819 345 8775ft 159kts
31-Oct-18 08:56 36.175535 -101.858907 346 10693ft 165kts
31-Oct-18 08:57 36.221242 -101.868351 346 12519ft 170kts
31-Oct-18 08:58 36.268309 -101.878070 347 14172ft 174kts
31-Oct-18 08:59 36.316706 -101.888080 347 15668ft 179kts
31-Oct-18 09:00 36.368207 -101.898743 347 16514ft 210kts
31-Oct-18 09:01 36.431341 -101.911848 348 16504ft 244kts
31-Oct-18 09:02 36.499632 -101.926032 347 16501ft 252kts
31-Oct-18 09:03 36.569185 -101.940520 348 16502ft 257kts
31-Oct-18 09:04 36.640411 -101.955388 348 16500ft 262kts
31-Oct-18 09:05 36.712158 -101.970378 348 16499ft 263kts
31-Oct-18 09:06 36.784349 -101.985490 348 16499ft 263kts
31-Oct-18 09:07 36.856483 -102.000628 348 16499ft 263kts
31-Oct-18 09:08 36.928633 -102.015791 348 16499ft 263kts
31-Oct-18 09:09 37.000630 -102.030940 348 16499ft 263kts
31-Oct-18 09:10 37.072716 -102.046169 348 16498ft 263kts
31-Oct-18 09:11 37.144507 -102.061336 348 16500ft 263kts
31-Oct-18 09:12 37.216829 -102.076648 348 16500ft 263kts
31-Oct-18 09:13 37.288785 -102.091930 347 16499ft 263kts
31-Oct-18 09:14 37.361099 -102.107295 348 16500ft 263kts
31-Oct-18 09:15 37.433218 -102.122667 348 16499ft 263kts
31-Oct-18 09:16 37.505255 -102.138032 348 16499ft 263kts
31-Oct-18 09:17 37.577391 -102.153458 348 16500ft 263kts
31-Oct-18 09:18 37.649456 -102.168903 348 16499ft 263kts
31-Oct-18 09:19 37.721604 -102.184405 348 16499ft 263kts
31-Oct-18 09:20 37.793826 -102.199945 348 16499ft 263kts
31-Oct-18 09:21 37.865909 -102.215484 347 16499ft 263kts
31-Oct-18 09:22 37.937838 -102.231027 348 16498ft 263kts
31-Oct-18 09:23 38.009901 -102.246630 348 16498ft 263kts
31-Oct-18 09:24 38.082032 -102.262266 348 16498ft 263kts
31-Oct-18 09:25 38.153784 -102.277853 348 16499ft 263kts
31-Oct-18 09:26 38.225785 -102.293529 348 16499ft 263kts
31-Oct-18 09:27 38.297932 -102.309283 348 16499ft 263kts
31-Oct-18 09:28 38.370026 -102.325041 348 16499ft 263kts
31-Oct-18 09:29 38.441982 -102.340784 348 16499ft 263kts
31-Oct-18 09:30 38.513981 -102.356588 348 16499ft 263kts
31-Oct-18 09:31 38.586223 -102.372485 347 16498ft 263kts
31-Oct-18 09:32 38.658062 -102.388314 348 16498ft 263kts
31-Oct-18 09:33 38.730249 -102.404255 348 16498ft 263kts
31-Oct-18 09:34 38.802192 -102.420185 348 16498ft 263kts
31-Oct-18 09:35 38.874166 -102.436154 348 16498ft 263kts
31-Oct-18 09:37 38.946230 -102.452151 348 16498ft 263kts
31-Oct-18 09:38 39.018441 -102.468239 348 16498ft 263kts
31-Oct-18 09:39 39.090322 -102.484289 348 16498ft 263kts
31-Oct-18 09:40 39.162190 -102.500346 348 16499ft 263kts
31-Oct-18 09:41 39.234257 -102.516483 348 16499ft 263kts
31-Oct-18 09:42 39.308649 -102.533164 348 15407ft 265kts
31-Oct-18 09:43 39.377263 -102.548625 348 14085ft 242kts
31-Oct-18 09:44 39.442112 -102.563251 347 12770ft 233kts
31-Oct-18 09:45 39.505512 -102.577579 347 11671ft 232kts
31-Oct-18 09:46 39.569047 -102.591964 347 10663ft 232kts
31-Oct-18 09:47 39.632584 -102.606350 347 9654ft 232kts
31-Oct-18 09:48 39.695479 -102.620638 347 8821ft 226kts
31-Oct-18 09:49 39.756821 -102.634598 347 8104ft 222kts
31-Oct-18 09:50 39.817291 -102.648371 347 7391ft 221kts
31-Oct-18 09:51 39.877156 -102.662054 347 6698ft 220kts
31-Oct-18 09:52 39.935599 -102.675409 346 6497ft 204kts
31-Oct-18 09:53 39.990034 -102.687858 345 6469ft 197kts
31-Oct-18 09:54 40.037969 -102.707398 345 6095ft 162kts
31-Oct-18 09:55 40.073851 -102.709992 347 5002ft 108kts
31-Oct-18 09:56 40.100476 -102.713932 346 4144ft 87kts
31-Oct-18 09:57 40.107360 -102.716039 262 4142ft 10kts
31-Oct-18 09:58 40.107855 -102.718266 351 4143ft 0kts
31-Oct-18 09:59 40.107855 -102.718266 351 4143ft 0kts
31-Oct-18 10:00 40.107855 -102.718266 351 4143ft 0kts
31-Oct-18 10:01 40.107855 -102.718266 351 4143ft 0kts
31-Oct-18 10:02 40.107855 -102.718266 351 4143ft 0kts
31-Oct-18 10:03 40.107855 -102.718266 351 4143ft 0kts
31-Oct-18 10:04 40.107855 -102.718266 351 4143ft 0kts
31-Oct-18 10:05 40.107855 -102.718266 351 4143ft 0kts
31-Oct-18 10:06 40.107855 -102.718266 351 4143ft 0kts
31-Oct-18 10:07 40.107855 -102.718266 351 4143ft 0kts
31-Oct-18 10:08 40.107855 -102.718266 351 4143ft 0kts
31-Oct-18 10:09 40.107855 -102.718266 351 4143ft 0kts
31-Oct-18 10:10 40.107855 -102.718266 351 4143ft 0kts
31-Oct-18 10:11 40.107855 -102.718266 351 4143ft 0kts

Navigation Log

Ident Type
Flight plan parsing failed, navigation log unavailable